createdAt,value
2023-01-26T00:00:07.602Z,31.26
2023-01-26T00:02:56.633Z,31.08
2023-01-26T00:05:24.931Z,31.72
2023-01-26T00:07:53.617Z,31.71
2023-01-26T00:10:21.944Z,31.81
2023-01-26T00:12:50.473Z,32.08
2023-01-26T00:15:20.132Z,31.66
2023-01-26T00:17:51.538Z,31.55
2023-01-26T00:20:19.991Z,31.58
2023-01-26T00:22:48.496Z,31.19
2023-01-26T00:25:17.015Z,31.17
2023-01-26T00:27:45.691Z,30.86
2023-01-26T00:30:14.542Z,30.62
2023-01-26T00:32:44.841Z,31.23
2023-01-26T00:35:15.307Z,30.83
2023-01-26T00:37:44.302Z,30.73
2023-01-26T00:40:13.448Z,30.78
2023-01-26T00:42:42.128Z,30.65
2023-01-26T00:45:11.110Z,30.73
2023-01-26T00:47:39.811Z,30.42
2023-01-26T00:50:11.513Z,30.09
2023-01-26T00:52:40.557Z,30.60
2023-01-26T00:55:09.586Z,30.46
2023-01-26T00:57:38.048Z,30.64
2023-01-26T01:00:08.063Z,30.31
2023-01-26T01:02:36.924Z,30.11
2023-01-26T01:05:05.762Z,29.98
2023-01-26T01:07:35.927Z,30.10
2023-01-26T01:10:04.345Z,29.96
2023-01-26T01:12:33.020Z,29.67
2023-01-26T01:15:01.240Z,29.81
2023-01-26T01:17:29.800Z,30.00
2023-01-26T01:19:58.130Z,30.05
2023-01-26T01:22:26.616Z,29.62
2023-01-26T01:24:56.347Z,29.70
2023-01-26T01:27:25.011Z,29.58
2023-01-26T01:29:53.509Z,29.86
2023-01-26T01:32:22.313Z,29.81
2023-01-26T01:34:50.901Z,29.85
2023-01-26T01:37:19.649Z,29.77
2023-01-26T01:39:47.817Z,29.78
2023-01-26T01:42:17.686Z,29.58
2023-01-26T01:44:48.292Z,29.40
2023-01-26T01:47:23.377Z,29.08
2023-01-26T01:49:54.155Z,29.23
2023-01-26T01:52:26.332Z,29.25
2023-01-26T01:54:59.776Z,28.96
2023-01-26T01:57:45.180Z,28.72
2023-01-26T02:00:16.031Z,28.80
2023-01-26T02:03:06.503Z,28.51
2023-01-26T02:05:38.837Z,28.52
2023-01-26T02:08:09.822Z,28.81
2023-01-26T02:10:38.469Z,29.17
2023-01-26T02:13:08.505Z,28.89
2023-01-26T02:15:36.893Z,28.74
2023-01-26T02:18:06.285Z,28.78
2023-01-26T02:20:40.482Z,28.29
2023-01-26T02:23:21.272Z,28.16
2023-01-26T02:26:08.976Z,28.17
2023-01-26T02:28:37.392Z,28.51
2023-01-26T02:31:06.249Z,28.49
2023-01-26T02:33:35.029Z,28.58
2023-01-26T02:36:03.935Z,28.67
2023-01-26T02:38:39.369Z,28.74
2023-01-26T02:41:10.735Z,28.93
2023-01-26T02:43:38.582Z,29.14
2023-01-26T02:46:06.864Z,29.09
2023-01-26T02:48:52.902Z,29.07
2023-01-26T02:51:21.127Z,29.34
2023-01-26T02:53:49.672Z,29.26
2023-01-26T02:56:18.237Z,29.23
2023-01-26T02:58:46.674Z,29.19
2023-01-26T03:01:15.088Z,29.18
2023-01-26T03:03:45.199Z,29.14
2023-01-26T03:06:15.288Z,28.98
2023-01-26T03:08:43.794Z,28.78
2023-01-26T03:11:12.008Z,28.74
2023-01-26T03:13:41.894Z,28.71
2023-01-26T03:16:12.072Z,28.96
2023-01-26T03:18:58.002Z,28.88
2023-01-26T03:21:43.394Z,29.08
2023-01-26T03:24:30.588Z,28.85
2023-01-26T03:27:16.576Z,28.86
2023-01-26T03:29:46.842Z,28.54
2023-01-26T03:32:15.379Z,28.58
2023-01-26T03:34:44.061Z,28.58
2023-01-26T03:37:12.871Z,28.75
2023-01-26T03:39:58.964Z,28.72
2023-01-26T03:42:45.401Z,28.48
2023-01-26T03:45:32.690Z,28.34
2023-01-26T03:48:25.597Z,27.96
2023-01-26T03:51:11.647Z,28.66
2023-01-26T03:53:57.224Z,28.57
2023-01-26T03:56:26.151Z,28.64
2023-01-26T03:58:55.905Z,28.46
2023-01-26T04:01:28.198Z,28.11
2023-01-26T04:04:16.076Z,28.29
2023-01-26T04:07:04.591Z,28.10
2023-01-26T04:09:33.687Z,28.10
2023-01-26T04:12:02.333Z,28.09
2023-01-26T04:14:49.802Z,28.24
2023-01-26T04:17:37.711Z,28.05
2023-01-26T04:20:25.179Z,28.01
2023-01-26T04:22:53.681Z,27.94
2023-01-26T04:25:24.009Z,28.30
2023-01-26T04:27:52.499Z,28.23
2023-01-26T04:30:20.968Z,28.18
2023-01-26T04:32:52.198Z,28.01
2023-01-26T04:35:20.392Z,28.06
2023-01-26T04:37:49.230Z,28.04
2023-01-26T04:40:17.613Z,28.03
2023-01-26T04:42:46.093Z,27.88
2023-01-26T04:45:14.333Z,27.98
2023-01-26T04:47:42.884Z,27.67
2023-01-26T04:50:13.295Z,27.52
2023-01-26T04:52:43.291Z,27.71
2023-01-26T04:55:11.590Z,28.35
2023-01-26T04:57:42.509Z,29.44
2023-01-26T05:00:12.423Z,29.69
2023-01-26T05:02:41.473Z,30.02
2023-01-26T05:05:10.707Z,30.34
2023-01-26T05:07:40.622Z,30.38
2023-01-26T05:10:10.049Z,30.47
2023-01-26T05:12:42.844Z,30.64
2023-01-26T05:15:11.879Z,30.75
2023-01-26T05:17:40.459Z,30.65
2023-01-26T05:20:10.537Z,30.76
2023-01-26T05:22:40.627Z,30.54
2023-01-26T05:25:09.608Z,30.60
2023-01-26T05:27:38.508Z,31.07
2023-01-26T05:30:07.654Z,31.37
2023-01-26T05:32:36.617Z,31.13
2023-01-26T05:35:05.743Z,31.41
2023-01-26T05:37:34.769Z,31.29
2023-01-26T05:40:05.457Z,31.11
2023-01-26T05:42:33.985Z,31.13
2023-01-26T05:45:02.461Z,30.95
2023-01-26T05:47:30.957Z,31.38
2023-01-26T05:49:59.299Z,31.70
2023-01-26T05:52:27.829Z,32.28
2023-01-26T05:54:56.394Z,32.15
2023-01-26T05:57:26.508Z,32.93
2023-01-26T05:59:54.755Z,33.24
2023-01-26T06:02:23.344Z,32.92
2023-01-26T06:04:51.728Z,32.28
2023-01-26T06:07:20.458Z,32.65
2023-01-26T06:09:48.721Z,32.38
2023-01-26T06:12:18.507Z,32.24
2023-01-26T06:14:48.428Z,32.12
2023-01-26T06:17:18.539Z,32.45
2023-01-26T06:19:46.989Z,32.64
2023-01-26T06:22:16.191Z,32.88
2023-01-26T06:24:44.573Z,32.46
2023-01-26T06:27:14.593Z,32.40
2023-01-26T06:29:42.966Z,32.57
2023-01-26T06:32:13.329Z,32.35
2023-01-26T06:34:41.766Z,32.39
2023-01-26T06:37:10.531Z,32.23
2023-01-26T06:39:38.833Z,32.37
2023-01-26T06:42:09.188Z,31.75
2023-01-26T06:44:37.749Z,31.87
2023-01-26T06:47:07.219Z,31.63
2023-01-26T06:49:36.922Z,31.23
2023-01-26T06:52:07.344Z,30.91
2023-01-26T06:54:35.782Z,31.13
2023-01-26T06:57:04.411Z,31.25
2023-01-26T06:59:32.731Z,31.40
2023-01-26T07:02:01.448Z,31.45
2023-01-26T07:04:29.867Z,31.41
2023-01-26T07:07:00.040Z,31.10
2023-01-26T07:09:28.231Z,30.81
2023-01-26T07:11:56.851Z,30.53
2023-01-26T07:14:24.999Z,30.76
2023-01-26T07:16:53.536Z,30.32
2023-01-26T07:19:22.820Z,30.50
2023-01-26T07:21:51.530Z,30.82
2023-01-26T07:24:22.095Z,30.69
2023-01-26T07:26:50.752Z,30.69
2023-01-26T07:29:19.810Z,30.49
2023-01-26T07:31:48.675Z,30.58
2023-01-26T07:34:17.236Z,30.78
2023-01-26T07:36:45.934Z,30.77
2023-01-26T07:39:14.232Z,30.85
2023-01-26T07:41:44.515Z,30.67
2023-01-26T07:44:13.240Z,30.87
2023-01-26T07:46:44.743Z,30.53
2023-01-26T07:49:14.069Z,30.74
2023-01-26T07:51:43.054Z,30.83
2023-01-26T07:54:13.007Z,30.52
2023-01-26T07:56:41.921Z,30.55
2023-01-26T07:59:13.164Z,30.41
2023-01-26T08:01:41.913Z,30.79
2023-01-26T08:04:11.854Z,30.98
2023-01-26T08:06:40.440Z,30.89
2023-01-26T08:09:08.821Z,30.88
2023-01-26T08:11:37.474Z,31.00
2023-01-26T08:14:05.829Z,30.72
2023-01-26T08:16:36.028Z,30.77
2023-01-26T08:19:04.728Z,30.50
2023-01-26T08:21:33.445Z,30.87
2023-01-26T08:24:03.656Z,30.88
2023-01-26T08:26:32.417Z,30.62
2023-01-26T08:29:00.912Z,30.38
2023-01-26T08:31:29.717Z,30.38
2023-01-26T08:33:59.482Z,30.04
2023-01-26T08:36:28.808Z,30.11
2023-01-26T08:38:57.425Z,29.94
2023-01-26T08:41:26.043Z,30.14
2023-01-26T08:43:54.614Z,30.22
2023-01-26T08:46:23.465Z,30.22
2023-01-26T08:48:51.929Z,30.20
2023-01-26T08:51:22.027Z,30.17
2023-01-26T08:53:50.431Z,30.26
2023-01-26T08:56:19.005Z,30.14
2023-01-26T08:58:47.811Z,30.06
2023-01-26T09:01:17.987Z,29.99
2023-01-26T09:03:46.989Z,29.96
2023-01-26T09:06:16.106Z,29.71
2023-01-26T09:08:45.931Z,29.76
2023-01-26T09:11:14.589Z,29.91
2023-01-26T09:13:43.012Z,29.98
2023-01-26T09:16:17.564Z,29.51
2023-01-26T09:18:46.046Z,30.06
2023-01-26T09:21:15.104Z,29.92
2023-01-26T09:23:43.731Z,30.14
2023-01-26T09:26:13.825Z,29.80
2023-01-26T09:28:42.129Z,29.86
2023-01-26T09:31:12.159Z,30.02
2023-01-26T09:33:40.890Z,30.40
2023-01-26T09:36:11.995Z,29.80
2023-01-26T09:38:40.897Z,29.65
2023-01-26T09:41:21.893Z,29.11
2023-01-26T09:43:52.944Z,29.23
2023-01-26T09:46:23.750Z,29.23
2023-01-26T09:49:01.601Z,28.76
2023-01-26T09:51:34.786Z,29.04
2023-01-26T09:54:07.344Z,28.64
2023-01-26T09:56:37.540Z,28.73
2023-01-26T09:59:12.782Z,29.13
2023-01-26T10:01:45.451Z,29.23
2023-01-26T10:04:21.983Z,28.96
2023-01-26T10:06:51.189Z,29.68
2023-01-26T10:09:24.308Z,29.30
2023-01-26T10:11:56.451Z,29.12
2023-01-26T10:14:31.704Z,28.91
2023-01-26T10:17:02.243Z,28.75
2023-01-26T10:19:35.602Z,28.56
2023-01-26T10:22:07.533Z,28.35
2023-01-26T10:24:36.064Z,28.57
2023-01-26T10:27:14.240Z,27.90
2023-01-26T10:29:42.829Z,27.99
2023-01-26T10:32:15.820Z,27.33
2023-01-26T10:34:44.562Z,27.57
2023-01-26T10:37:24.298Z,26.85
2023-01-26T10:40:00.930Z,26.67
2023-01-26T10:42:32.705Z,26.37
2023-01-26T10:45:03.547Z,26.37
2023-01-26T10:47:32.707Z,27.06
2023-01-26T10:50:17.190Z,26.10
2023-01-26T10:52:58.930Z,25.98
2023-01-26T10:55:27.672Z,26.61
2023-01-26T10:57:59.468Z,26.45
2023-01-26T11:00:30.406Z,26.43
2023-01-26T11:03:01.560Z,25.18
2023-01-26T11:05:30.235Z,26.30
2023-01-26T11:08:00.663Z,26.46
2023-01-26T11:10:33.458Z,26.17
2023-01-26T11:13:25.382Z,25.88
2023-01-26T11:16:04.494Z,26.03
2023-01-26T11:18:42.953Z,26.37
2023-01-26T11:21:17.096Z,26.46
2023-01-26T11:23:53.872Z,26.11
2023-01-26T11:26:37.044Z,26.29
2023-01-26T11:29:29.345Z,26.29
2023-01-26T11:32:02.135Z,26.60
2023-01-26T11:34:37.218Z,26.93
2023-01-26T11:37:26.598Z,26.44
2023-01-26T11:40:05.076Z,26.78
2023-01-26T11:42:37.379Z,26.63
2023-01-26T11:45:19.318Z,26.34
2023-01-26T11:47:53.953Z,26.02
2023-01-26T11:50:35.270Z,26.02
2023-01-26T11:53:19.504Z,25.45
2023-01-26T11:55:57.855Z,25.40
2023-01-26T11:58:32.882Z,25.75
2023-01-26T12:01:04.841Z,25.92
2023-01-26T12:03:40.584Z,25.25
2023-01-26T12:06:17.375Z,24.84
2023-01-26T12:08:50.231Z,24.70
2023-01-26T12:11:26.617Z,24.79
2023-01-26T12:14:06.750Z,24.23
2023-01-26T12:17:11.550Z,24.30
2023-01-26T12:19:49.775Z,24.33
2023-01-26T12:22:22.062Z,24.10
2023-01-26T12:25:18.697Z,24.42
2023-01-26T12:27:47.630Z,24.21
2023-01-26T12:30:27.748Z,23.54
2023-01-26T12:32:58.055Z,24.05
2023-01-26T12:35:37.979Z,23.93
2023-01-26T12:38:18.013Z,24.16
2023-01-26T12:40:59.133Z,24.02
2023-01-26T12:43:40.030Z,23.73
2023-01-26T12:46:09.605Z,24.24
2023-01-26T12:48:42.877Z,23.89
2023-01-26T12:51:13.805Z,24.61
2023-01-26T12:53:50.748Z,23.71
2023-01-26T12:56:23.775Z,24.27
2023-01-26T12:58:54.472Z,24.53
2023-01-26T13:01:24.996Z,24.17
2023-01-26T13:03:57.279Z,24.28
2023-01-26T13:06:26.791Z,24.41
2023-01-26T13:09:04.610Z,23.88
2023-01-26T13:11:50.739Z,23.83
2023-01-26T13:14:32.014Z,24.03
2023-01-26T13:17:39.008Z,23.88
2023-01-26T13:20:28.946Z,23.96
2023-01-26T13:22:57.723Z,24.48
2023-01-26T13:25:35.093Z,23.94
2023-01-26T13:28:05.063Z,24.20
2023-01-26T13:30:45.048Z,24.02
2023-01-26T13:33:23.271Z,23.99
2023-01-26T13:35:55.309Z,24.39
2023-01-26T13:38:32.679Z,24.25
2023-01-26T13:41:01.550Z,24.94
2023-01-26T13:43:34.432Z,24.71
2023-01-26T13:46:20.322Z,24.53
2023-01-26T13:48:50.529Z,25.19
2023-01-26T13:51:22.402Z,25.04
2023-01-26T13:53:56.087Z,24.97
2023-01-26T13:56:28.530Z,25.10
2023-01-26T13:59:14.731Z,25.15
2023-01-26T14:01:45.036Z,25.50
2023-01-26T14:04:20.871Z,25.22
2023-01-26T14:07:05.675Z,25.23
2023-01-26T14:09:46.828Z,25.47
2023-01-26T14:12:18.300Z,24.39
2023-01-26T14:14:49.434Z,25.30
2023-01-26T14:17:28.301Z,24.50
2023-01-26T14:19:56.973Z,25.51
2023-01-26T14:22:27.376Z,25.59
2023-01-26T14:24:56.060Z,25.90
2023-01-26T14:27:35.652Z,25.77
2023-01-26T14:30:09.364Z,26.38
2023-01-26T14:32:38.421Z,26.41
2023-01-26T14:35:22.825Z,25.52
2023-01-26T14:38:07.016Z,25.70
2023-01-26T14:40:35.464Z,26.04
2023-01-26T14:43:05.204Z,25.99
2023-01-26T14:45:33.776Z,26.00
2023-01-26T14:48:06.015Z,25.83
2023-01-26T14:50:34.507Z,26.23
2023-01-26T14:53:05.054Z,26.19
2023-01-26T14:55:40.367Z,25.88
2023-01-26T14:58:16.975Z,25.69
2023-01-26T15:00:49.443Z,25.85
2023-01-26T15:03:25.346Z,25.92
2023-01-26T15:06:07.006Z,26.05
2023-01-26T15:08:37.843Z,26.23
2023-01-26T15:11:23.827Z,26.25
2023-01-26T15:13:55.399Z,26.26
2023-01-26T15:16:24.325Z,25.30
2023-01-26T15:19:00.568Z,26.04
2023-01-26T15:21:34.033Z,26.24
2023-01-26T15:24:06.347Z,26.75
2023-01-26T15:26:36.357Z,27.21
2023-01-26T15:29:07.311Z,27.01
2023-01-26T15:31:37.089Z,26.97
2023-01-26T15:34:06.819Z,27.03
2023-01-26T15:36:48.884Z,26.95
2023-01-26T15:39:20.492Z,27.02
2023-01-26T15:42:02.605Z,26.88
2023-01-26T15:44:34.981Z,27.48
2023-01-26T15:47:05.707Z,27.42
2023-01-26T15:49:34.858Z,27.46
2023-01-26T15:52:03.293Z,27.90
2023-01-26T15:54:33.296Z,27.67
2023-01-26T15:57:01.738Z,27.76
2023-01-26T15:59:30.352Z,27.85
2023-01-26T16:01:59.020Z,28.01
2023-01-26T16:04:28.444Z,27.99
2023-01-26T16:06:56.924Z,27.62
2023-01-26T16:09:25.473Z,27.78
2023-01-26T16:11:55.210Z,27.69
2023-01-26T16:14:23.853Z,27.93
2023-01-26T16:16:52.216Z,27.73
2023-01-26T16:19:34.767Z,28.04
2023-01-26T16:22:03.713Z,28.11
2023-01-26T16:24:32.323Z,28.00
2023-01-26T16:27:02.134Z,27.97
2023-01-26T16:29:31.490Z,28.09
2023-01-26T16:32:00.533Z,28.38
2023-01-26T16:34:30.169Z,28.19
2023-01-26T16:36:58.626Z,28.26
2023-01-26T16:39:27.239Z,28.33
2023-01-26T16:41:55.803Z,28.35
2023-01-26T16:44:26.215Z,28.15
2023-01-26T16:46:54.718Z,28.26
2023-01-26T16:49:23.514Z,28.24
2023-01-26T16:51:52.344Z,28.20
2023-01-26T16:54:24.035Z,28.33
2023-01-26T16:56:52.734Z,27.00
2023-01-26T16:59:21.789Z,28.10
2023-01-26T17:01:51.496Z,28.22
2023-01-26T17:04:20.547Z,28.29
2023-01-26T17:06:48.968Z,28.56
2023-01-26T17:09:17.817Z,28.52
2023-01-26T17:11:46.127Z,28.52
2023-01-26T17:14:14.808Z,28.48
2023-01-26T17:16:43.267Z,28.48
2023-01-26T17:19:13.698Z,28.57
2023-01-26T17:21:42.177Z,28.85
2023-01-26T17:24:11.110Z,28.76
2023-01-26T17:26:40.071Z,28.70
2023-01-26T17:29:09.632Z,28.54
2023-01-26T17:31:38.639Z,28.57
2023-01-26T17:34:08.268Z,28.58
2023-01-26T17:36:38.082Z,28.38
2023-01-26T17:39:06.925Z,28.44
2023-01-26T17:41:35.674Z,28.35
2023-01-26T17:44:04.978Z,28.26
2023-01-26T17:46:33.333Z,28.27
2023-01-26T17:49:02.175Z,27.86
2023-01-26T17:51:30.634Z,27.92
2023-01-26T17:54:00.723Z,27.52
2023-01-26T17:56:30.890Z,27.90
2023-01-26T17:58:59.630Z,28.25
2023-01-26T18:01:28.290Z,28.13
2023-01-26T18:03:57.029Z,28.32
2023-01-26T18:06:25.378Z,28.31
2023-01-26T18:08:54.510Z,28.25
2023-01-26T18:11:27.621Z,27.82
2023-01-26T18:13:57.735Z,28.69
2023-01-26T18:16:26.135Z,28.95
2023-01-26T18:18:56.119Z,28.88
2023-01-26T18:21:27.179Z,29.12
2023-01-26T18:23:56.480Z,27.94
2023-01-26T18:26:28.365Z,28.81
2023-01-26T18:28:57.081Z,29.02
2023-01-26T18:31:26.782Z,29.01
2023-01-26T18:33:56.621Z,29.03
2023-01-26T18:36:25.537Z,29.35
2023-01-26T18:38:56.381Z,29.23
2023-01-26T18:41:27.387Z,29.29
2023-01-26T18:43:58.025Z,29.06
2023-01-26T18:46:27.279Z,29.23
2023-01-26T18:49:00.808Z,29.25
2023-01-26T18:51:29.882Z,29.18
2023-01-26T18:53:58.796Z,29.19
2023-01-26T18:56:28.939Z,28.96
2023-01-26T18:58:57.804Z,29.33
2023-01-26T19:01:26.333Z,29.46
2023-01-26T19:03:56.079Z,29.56
2023-01-26T19:06:25.774Z,29.02
2023-01-26T19:09:01.039Z,28.69
2023-01-26T19:11:35.464Z,28.34
2023-01-26T19:14:07.534Z,27.98
2023-01-26T19:16:37.052Z,27.82
2023-01-26T19:19:06.384Z,27.74
2023-01-26T19:21:35.395Z,27.46
2023-01-26T19:24:06.319Z,27.37
2023-01-26T19:26:36.495Z,27.26
2023-01-26T19:29:06.426Z,26.79
2023-01-26T19:31:38.198Z,26.82
2023-01-26T19:34:10.451Z,26.79
2023-01-26T19:36:39.375Z,26.86
2023-01-26T19:39:08.240Z,26.88
2023-01-26T19:41:39.152Z,26.83
2023-01-26T19:44:08.124Z,26.81
2023-01-26T19:46:37.282Z,26.75
2023-01-26T19:49:07.316Z,26.59
2023-01-26T19:51:35.889Z,26.64
2023-01-26T19:54:05.184Z,26.56
2023-01-26T19:56:36.300Z,26.46
2023-01-26T19:59:08.568Z,26.34
2023-01-26T20:01:37.872Z,26.56
2023-01-26T20:04:09.290Z,26.46
2023-01-26T20:06:39.313Z,26.43
2023-01-26T20:09:09.293Z,26.41
2023-01-26T20:11:38.124Z,26.37
2023-01-26T20:14:09.787Z,26.39
2023-01-26T20:16:38.500Z,26.80
2023-01-26T20:19:07.531Z,26.90
2023-01-26T20:21:38.878Z,26.64
2023-01-26T20:24:08.695Z,26.55
2023-01-26T20:26:37.430Z,26.57
2023-01-26T20:29:08.506Z,26.51
2023-01-26T20:31:37.274Z,26.71
2023-01-26T20:34:06.184Z,26.48
2023-01-26T20:36:35.481Z,26.34
2023-01-26T20:39:05.017Z,26.41
2023-01-26T20:41:34.593Z,26.47
2023-01-26T20:44:05.296Z,26.31
2023-01-26T20:46:37.675Z,26.37
2023-01-26T20:49:08.819Z,26.58
2023-01-26T20:51:39.686Z,26.75
2023-01-26T20:54:08.864Z,26.64
2023-01-26T20:56:38.392Z,26.90
2023-01-26T20:59:08.132Z,26.57
2023-01-26T21:01:38.038Z,26.69
2023-01-26T21:04:07.235Z,26.66
2023-01-26T21:06:36.282Z,26.64
2023-01-26T21:09:08.095Z,26.84
2023-01-26T21:11:36.747Z,26.79
2023-01-26T21:14:05.736Z,26.96
2023-01-26T21:16:35.726Z,26.90
2023-01-26T21:19:05.936Z,26.83
2023-01-26T21:21:34.311Z,26.95
2023-01-26T21:24:03.084Z,27.02
2023-01-26T21:26:32.867Z,26.97
2023-01-26T21:29:01.647Z,27.01
2023-01-26T21:31:32.151Z,26.88
2023-01-26T21:34:01.567Z,27.18
2023-01-26T21:36:32.930Z,27.04
2023-01-26T21:39:02.425Z,27.33
2023-01-26T21:41:49.729Z,27.40
2023-01-26T21:44:20.329Z,27.42
2023-01-26T21:46:50.615Z,27.19
2023-01-26T21:49:19.737Z,27.26
2023-01-26T21:52:07.118Z,27.07
2023-01-26T21:54:35.841Z,27.09
2023-01-26T21:57:25.927Z,26.94
2023-01-26T21:59:53.438Z,27.12
2023-01-26T22:02:22.231Z,27.01
2023-01-26T22:04:51.062Z,27.05
2023-01-26T22:07:20.861Z,27.14
2023-01-26T22:09:49.550Z,27.28
2023-01-26T22:12:17.824Z,27.13
2023-01-26T22:14:46.555Z,27.05
2023-01-26T22:17:14.847Z,27.33
2023-01-26T22:19:43.530Z,26.97
2023-01-26T22:22:12.771Z,27.02
2023-01-26T22:24:42.774Z,26.84
2023-01-26T22:27:11.040Z,27.02
2023-01-26T22:29:39.669Z,27.23
2023-01-26T22:32:08.097Z,27.28
2023-01-26T22:34:36.768Z,27.38
2023-01-26T22:37:05.033Z,27.49
2023-01-26T22:39:33.564Z,27.54
2023-01-26T22:42:03.450Z,27.31
2023-01-26T22:44:32.008Z,27.52
2023-01-26T22:47:00.443Z,27.46
2023-01-26T22:49:29.975Z,27.41
2023-01-26T22:51:58.350Z,27.67
2023-01-26T22:54:27.917Z,27.63
2023-01-26T22:56:56.782Z,27.83
2023-01-26T22:59:26.789Z,27.55
2023-01-26T23:01:54.993Z,27.92
2023-01-26T23:04:23.669Z,28.21
2023-01-26T23:06:52.030Z,28.35
2023-01-26T23:09:20.777Z,28.09
2023-01-26T23:11:48.923Z,28.26
2023-01-26T23:14:17.474Z,28.15
2023-01-26T23:16:47.084Z,28.00
2023-01-26T23:19:15.659Z,28.09
2023-01-26T23:21:43.933Z,28.37
2023-01-26T23:24:12.645Z,28.47
2023-01-26T23:26:40.950Z,28.41
2023-01-26T23:29:09.499Z,28.41
2023-01-26T23:31:37.762Z,28.64
2023-01-26T23:34:07.736Z,28.56
2023-01-26T23:36:35.951Z,28.79
2023-01-26T23:39:04.788Z,28.73
2023-01-26T23:41:33.005Z,28.83
2023-01-26T23:44:01.451Z,28.82
2023-01-26T23:46:29.979Z,28.87
2023-01-26T23:48:58.646Z,29.03
2023-01-26T23:51:28.603Z,29.08
2023-01-26T23:53:57.197Z,29.27
2023-01-26T23:56:25.433Z,29.36
2023-01-26T23:58:53.934Z,29.52
